sensor_id;sensor_type;location;lat;lon;timestamp;P1;durP1;ratioP1;P2;durP2;ratioP2
69047;SDS011;56119;50.118;8.642;2023-01-10T00:00:46;3.35;;;2.00;;
69047;SDS011;56119;50.118;8.642;2023-01-10T00:03:12;4.63;;;1.80;;
69047;SDS011;56119;50.118;8.642;2023-01-10T00:05:39;5.43;;;1.88;;
69047;SDS011;56119;50.118;8.642;2023-01-10T00:08:05;8.75;;;2.22;;
69047;SDS011;56119;50.118;8.642;2023-01-10T00:10:32;5.38;;;2.30;;
69047;SDS011;56119;50.118;8.642;2023-01-10T00:12:58;4.80;;;1.85;;
69047;SDS011;56119;50.118;8.642;2023-01-10T00:15:42;2.65;;;1.52;;
69047;SDS011;56119;50.118;8.642;2023-01-10T00:18:08;2.25;;;1.40;;
69047;SDS011;56119;50.118;8.642;2023-01-10T00:20:34;6.03;;;1.98;;
69047;SDS011;56119;50.118;8.642;2023-01-10T00:23:00;3.95;;;1.40;;
69047;SDS011;56119;50.118;8.642;2023-01-10T00:25:27;2.60;;;1.83;;
69047;SDS011;56119;50.118;8.642;2023-01-10T00:27:53;1.67;;;1.33;;
69047;SDS011;56119;50.118;8.642;2023-01-10T00:30:45;3.75;;;1.10;;
69047;SDS011;56119;50.118;8.642;2023-01-10T00:33:12;2.63;;;1.55;;
69047;SDS011;56119;50.118;8.642;2023-01-10T00:35:44;1.65;;;1.15;;
69047;SDS011;56119;50.118;8.642;2023-01-10T00:38:10;3.58;;;1.40;;
69047;SDS011;56119;50.118;8.642;2023-01-10T00:40:36;1.83;;;1.50;;
69047;SDS011;56119;50.118;8.642;2023-01-10T00:43:02;5.03;;;1.40;;
69047;SDS011;56119;50.118;8.642;2023-01-10T00:45:47;2.45;;;0.77;;
69047;SDS011;56119;50.118;8.642;2023-01-10T00:48:13;2.97;;;1.27;;
69047;SDS011;56119;50.118;8.642;2023-01-10T00:50:39;4.57;;;1.25;;
69047;SDS011;56119;50.118;8.642;2023-01-10T00:53:05;1.80;;;1.20;;
69047;SDS011;56119;50.118;8.642;2023-01-10T00:55:32;5.18;;;1.92;;
69047;SDS011;56119;50.118;8.642;2023-01-10T00:57:58;3.00;;;1.20;;
69047;SDS011;56119;50.118;8.642;2023-01-10T01:00:24;1.90;;;1.08;;
69047;SDS011;56119;50.118;8.642;2023-01-10T01:02:50;3.35;;;1.60;;
69047;SDS011;56119;50.118;8.642;2023-01-10T01:05:16;3.10;;;1.27;;
69047;SDS011;56119;50.118;8.642;2023-01-10T01:07:42;2.38;;;1.27;;
69047;SDS011;56119;50.118;8.642;2023-01-10T01:10:08;1.75;;;1.20;;
69047;SDS011;56119;50.118;8.642;2023-01-10T01:12:50;3.33;;;1.40;;
69047;SDS011;56119;50.118;8.642;2023-01-10T01:15:16;3.42;;;1.38;;
69047;SDS011;56119;50.118;8.642;2023-01-10T01:17:42;3.17;;;1.30;;
69047;SDS011;56119;50.118;8.642;2023-01-10T01:20:08;1.52;;;1.20;;
69047;SDS011;56119;50.118;8.642;2023-01-10T01:22:34;4.55;;;1.15;;
69047;SDS011;56119;50.118;8.642;2023-01-10T01:25:00;3.03;;;1.35;;
69047;SDS011;56119;50.118;8.642;2023-01-10T01:27:28;2.22;;;1.27;;
69047;SDS011;56119;50.118;8.642;2023-01-10T01:29:54;2.10;;;1.10;;
69047;SDS011;56119;50.118;8.642;2023-01-10T01:32:20;3.45;;;1.38;;
69047;SDS011;56119;50.118;8.642;2023-01-10T01:34:46;3.58;;;1.25;;
69047;SDS011;56119;50.118;8.642;2023-01-10T01:37:12;2.58;;;1.30;;
69047;SDS011;56119;50.118;8.642;2023-01-10T01:39:38;2.97;;;1.45;;
69047;SDS011;56119;50.118;8.642;2023-01-10T01:42:04;2.92;;;1.40;;
69047;SDS011;56119;50.118;8.642;2023-01-10T01:44:31;3.22;;;1.17;;
69047;SDS011;56119;50.118;8.642;2023-01-10T01:47:04;2.95;;;1.48;;
69047;SDS011;56119;50.118;8.642;2023-01-10T01:49:30;3.10;;;1.67;;
69047;SDS011;56119;50.118;8.642;2023-01-10T01:51:58;3.80;;;1.40;;
69047;SDS011;56119;50.118;8.642;2023-01-10T01:54:25;1.50;;;1.17;;
69047;SDS011;56119;50.118;8.642;2023-01-10T01:56:58;4.75;;;1.73;;
69047;SDS011;56119;50.118;8.642;2023-01-10T01:59:29;4.25;;;1.50;;
69047;SDS011;56119;50.118;8.642;2023-01-10T02:01:57;2.08;;;1.35;;
69047;SDS011;56119;50.118;8.642;2023-01-10T02:04:26;1.70;;;1.20;;
69047;SDS011;56119;50.118;8.642;2023-01-10T02:06:53;3.10;;;1.58;;
69047;SDS011;56119;50.118;8.642;2023-01-10T02:09:24;1.48;;;1.00;;
69047;SDS011;56119;50.118;8.642;2023-01-10T02:11:53;1.85;;;1.00;;
69047;SDS011;56119;50.118;8.642;2023-01-10T02:14:19;2.70;;;1.15;;
69047;SDS011;56119;50.118;8.642;2023-01-10T02:16:46;2.80;;;1.33;;
69047;SDS011;56119;50.118;8.642;2023-01-10T02:19:23;3.17;;;1.25;;
69047;SDS011;56119;50.118;8.642;2023-01-10T02:22:16;2.58;;;1.65;;
69047;SDS011;56119;50.118;8.642;2023-01-10T02:29:38;2.42;;;1.38;;
69047;SDS011;56119;50.118;8.642;2023-01-10T02:32:08;3.03;;;1.40;;
69047;SDS011;56119;50.118;8.642;2023-01-10T02:34:46;2.30;;;1.40;;
69047;SDS011;56119;50.118;8.642;2023-01-10T02:37:19;3.38;;;1.20;;
69047;SDS011;56119;50.118;8.642;2023-01-10T02:40:03;3.75;;;1.40;;
69047;SDS011;56119;50.118;8.642;2023-01-10T02:42:38;2.50;;;1.40;;
69047;SDS011;56119;50.118;8.642;2023-01-10T02:45:51;2.72;;;1.30;;
69047;SDS011;56119;50.118;8.642;2023-01-10T02:47:56;2.97;;;1.25;;
69047;SDS011;56119;50.118;8.642;2023-01-10T02:53:05;2.03;;;1.13;;
69047;SDS011;56119;50.118;8.642;2023-01-10T02:58:22;4.72;;;1.20;;
69047;SDS011;56119;50.118;8.642;2023-01-10T03:00:56;1.45;;;1.10;;
69047;SDS011;56119;50.118;8.642;2023-01-10T03:06:10;2.67;;;1.17;;
69047;SDS011;56119;50.118;8.642;2023-01-10T03:08:49;3.83;;;1.30;;
69047;SDS011;56119;50.118;8.642;2023-01-10T03:11:16;2.03;;;1.23;;
69047;SDS011;56119;50.118;8.642;2023-01-10T03:14:02;2.85;;;1.20;;
69047;SDS011;56119;50.118;8.642;2023-01-10T03:16:28;4.38;;;1.00;;
69047;SDS011;56119;50.118;8.642;2023-01-10T03:18:56;3.35;;;1.35;;
69047;SDS011;56119;50.118;8.642;2023-01-10T03:21:24;3.28;;;1.00;;
69047;SDS011;56119;50.118;8.642;2023-01-10T03:23:51;2.00;;;1.05;;
69047;SDS011;56119;50.118;8.642;2023-01-10T03:26:21;1.95;;;1.00;;
69047;SDS011;56119;50.118;8.642;2023-01-10T03:28:51;2.08;;;1.20;;
69047;SDS011;56119;50.118;8.642;2023-01-10T03:31:22;3.63;;;1.42;;
69047;SDS011;56119;50.118;8.642;2023-01-10T03:33:49;1.20;;;1.08;;
69047;SDS011;56119;50.118;8.642;2023-01-10T03:36:18;5.15;;;1.70;;
69047;SDS011;56119;50.118;8.642;2023-01-10T03:41:18;5.50;;;1.58;;
69047;SDS011;56119;50.118;8.642;2023-01-10T03:43:47;3.58;;;1.38;;
69047;SDS011;56119;50.118;8.642;2023-01-10T03:49:06;5.60;;;1.48;;
69047;SDS011;56119;50.118;8.642;2023-01-10T03:51:32;5.72;;;1.60;;
69047;SDS011;56119;50.118;8.642;2023-01-10T03:54:01;5.00;;;1.70;;
69047;SDS011;56119;50.118;8.642;2023-01-10T03:56:27;2.35;;;1.17;;
69047;SDS011;56119;50.118;8.642;2023-01-10T03:58:53;4.32;;;1.52;;
69047;SDS011;56119;50.118;8.642;2023-01-10T04:01:19;4.15;;;1.17;;
69047;SDS011;56119;50.118;8.642;2023-01-10T04:03:45;3.08;;;1.50;;
69047;SDS011;56119;50.118;8.642;2023-01-10T04:06:11;2.03;;;1.20;;
69047;SDS011;56119;50.118;8.642;2023-01-10T04:08:37;1.98;;;1.15;;
69047;SDS011;56119;50.118;8.642;2023-01-10T04:11:03;4.75;;;1.27;;
69047;SDS011;56119;50.118;8.642;2023-01-10T04:13:29;7.97;;;1.10;;
69047;SDS011;56119;50.118;8.642;2023-01-10T04:15:57;6.95;;;1.20;;
69047;SDS011;56119;50.118;8.642;2023-01-10T04:18:23;3.88;;;0.98;;
69047;SDS011;56119;50.118;8.642;2023-01-10T04:20:49;4.60;;;1.17;;
69047;SDS011;56119;50.118;8.642;2023-01-10T04:23:15;4.93;;;1.90;;
69047;SDS011;56119;50.118;8.642;2023-01-10T04:25:45;3.88;;;1.60;;
69047;SDS011;56119;50.118;8.642;2023-01-10T04:28:11;5.55;;;1.05;;
69047;SDS011;56119;50.118;8.642;2023-01-10T04:30:37;4.82;;;1.50;;
69047;SDS011;56119;50.118;8.642;2023-01-10T04:33:02;5.28;;;1.40;;
69047;SDS011;56119;50.118;8.642;2023-01-10T04:35:28;7.18;;;1.42;;
69047;SDS011;56119;50.118;8.642;2023-01-10T04:37:54;2.63;;;1.33;;
69047;SDS011;56119;50.118;8.642;2023-01-10T04:40:20;2.38;;;1.40;;
69047;SDS011;56119;50.118;8.642;2023-01-10T04:42:47;3.10;;;1.83;;
69047;SDS011;56119;50.118;8.642;2023-01-10T04:45:13;7.85;;;1.98;;
69047;SDS011;56119;50.118;8.642;2023-01-10T04:47:41;7.88;;;1.70;;
69047;SDS011;56119;50.118;8.642;2023-01-10T04:50:07;4.10;;;1.50;;
69047;SDS011;56119;50.118;8.642;2023-01-10T04:52:34;5.60;;;1.95;;
69047;SDS011;56119;50.118;8.642;2023-01-10T04:54:59;6.75;;;2.10;;
69047;SDS011;56119;50.118;8.642;2023-01-10T04:57:25;5.57;;;2.33;;
69047;SDS011;56119;50.118;8.642;2023-01-10T04:59:51;6.05;;;1.90;;
69047;SDS011;56119;50.118;8.642;2023-01-10T05:02:17;8.70;;;2.47;;
69047;SDS011;56119;50.118;8.642;2023-01-10T05:04:43;7.30;;;2.28;;
69047;SDS011;56119;50.118;8.642;2023-01-10T05:07:09;8.23;;;2.20;;
69047;SDS011;56119;50.118;8.642;2023-01-10T05:09:36;5.93;;;2.10;;
69047;SDS011;56119;50.118;8.642;2023-01-10T05:12:02;8.25;;;2.30;;
69047;SDS011;56119;50.118;8.642;2023-01-10T05:14:28;10.75;;;2.60;;
69047;SDS011;56119;50.118;8.642;2023-01-10T05:16:54;9.70;;;3.00;;
69047;SDS011;56119;50.118;8.642;2023-01-10T05:19:20;8.20;;;2.35;;
69047;SDS011;56119;50.118;8.642;2023-01-10T05:21:46;6.63;;;2.35;;
69047;SDS011;56119;50.118;8.642;2023-01-10T05:24:12;6.82;;;2.30;;
69047;SDS011;56119;50.118;8.642;2023-01-10T05:26:38;6.53;;;2.63;;
69047;SDS011;56119;50.118;8.642;2023-01-10T05:29:04;8.48;;;2.65;;
69047;SDS011;56119;50.118;8.642;2023-01-10T05:31:30;6.72;;;2.95;;
69047;SDS011;56119;50.118;8.642;2023-01-10T05:33:56;8.00;;;3.10;;
69047;SDS011;56119;50.118;8.642;2023-01-10T05:36:22;8.18;;;2.33;;
69047;SDS011;56119;50.118;8.642;2023-01-10T05:38:48;8.88;;;2.50;;
69047;SDS011;56119;50.118;8.642;2023-01-10T05:41:14;11.02;;;3.65;;
69047;SDS011;56119;50.118;8.642;2023-01-10T05:43:40;7.20;;;2.80;;
69047;SDS011;56119;50.118;8.642;2023-01-10T05:46:06;8.15;;;3.10;;
69047;SDS011;56119;50.118;8.642;2023-01-10T05:48:32;6.80;;;3.70;;
69047;SDS011;56119;50.118;8.642;2023-01-10T05:50:58;7.63;;;3.42;;
69047;SDS011;56119;50.118;8.642;2023-01-10T05:53:24;9.07;;;3.88;;
69047;SDS011;56119;50.118;8.642;2023-01-10T05:55:56;9.85;;;3.53;;
69047;SDS011;56119;50.118;8.642;2023-01-10T05:58:23;9.45;;;4.28;;
69047;SDS011;56119;50.118;8.642;2023-01-10T06:00:49;8.77;;;3.92;;
69047;SDS011;56119;50.118;8.642;2023-01-10T06:03:15;9.90;;;3.90;;
69047;SDS011;56119;50.118;8.642;2023-01-10T06:05:41;13.73;;;3.83;;
69047;SDS011;56119;50.118;8.642;2023-01-10T06:08:07;8.88;;;4.18;;
69047;SDS011;56119;50.118;8.642;2023-01-10T06:10:33;12.00;;;4.07;;
69047;SDS011;56119;50.118;8.642;2023-01-10T06:12:59;8.77;;;3.63;;
69047;SDS011;56119;50.118;8.642;2023-01-10T06:15:25;7.70;;;3.80;;
69047;SDS011;56119;50.118;8.642;2023-01-10T06:17:52;9.18;;;3.80;;
69047;SDS011;56119;50.118;8.642;2023-01-10T06:20:18;9.02;;;3.70;;
69047;SDS011;56119;50.118;8.642;2023-01-10T06:22:44;5.28;;;3.17;;
69047;SDS011;56119;50.118;8.642;2023-01-10T06:25:10;8.30;;;3.58;;
69047;SDS011;56119;50.118;8.642;2023-01-10T06:27:38;7.70;;;3.42;;
69047;SDS011;56119;50.118;8.642;2023-01-10T06:30:05;10.75;;;3.40;;
69047;SDS011;56119;50.118;8.642;2023-01-10T06:32:31;13.48;;;3.75;;
69047;SDS011;56119;50.118;8.642;2023-01-10T06:34:57;8.77;;;3.38;;
69047;SDS011;56119;50.118;8.642;2023-01-10T06:37:23;11.77;;;3.65;;
69047;SDS011;56119;50.118;8.642;2023-01-10T06:39:49;5.72;;;3.40;;
69047;SDS011;56119;50.118;8.642;2023-01-10T06:42:15;8.93;;;3.25;;
69047;SDS011;56119;50.118;8.642;2023-01-10T06:44:41;8.75;;;3.10;;
69047;SDS011;56119;50.118;8.642;2023-01-10T06:47:07;10.05;;;3.40;;
69047;SDS011;56119;50.118;8.642;2023-01-10T06:49:33;10.55;;;2.95;;
69047;SDS011;56119;50.118;8.642;2023-01-10T06:51:59;10.18;;;3.72;;
69047;SDS011;56119;50.118;8.642;2023-01-10T06:54:25;8.65;;;3.08;;
69047;SDS011;56119;50.118;8.642;2023-01-10T06:56:51;18.25;;;4.07;;
69047;SDS011;56119;50.118;8.642;2023-01-10T06:59:17;9.60;;;3.65;;
69047;SDS011;56119;50.118;8.642;2023-01-10T07:01:43;8.98;;;3.15;;
69047;SDS011;56119;50.118;8.642;2023-01-10T07:04:09;11.80;;;3.10;;
69047;SDS011;56119;50.118;8.642;2023-01-10T07:06:38;10.13;;;4.03;;
69047;SDS011;56119;50.118;8.642;2023-01-10T07:09:05;8.93;;;3.10;;
69047;SDS011;56119;50.118;8.642;2023-01-10T07:11:31;12.88;;;2.97;;
69047;SDS011;56119;50.118;8.642;2023-01-10T07:13:59;12.50;;;3.13;;
69047;SDS011;56119;50.118;8.642;2023-01-10T07:16:25;12.13;;;3.10;;
69047;SDS011;56119;50.118;8.642;2023-01-10T07:18:51;8.55;;;2.60;;
69047;SDS011;56119;50.118;8.642;2023-01-10T07:21:17;7.10;;;2.92;;
69047;SDS011;56119;50.118;8.642;2023-01-10T07:23:46;11.25;;;3.22;;
69047;SDS011;56119;50.118;8.642;2023-01-10T07:26:14;11.70;;;3.10;;
69047;SDS011;56119;50.118;8.642;2023-01-10T07:28:41;10.05;;;2.90;;
69047;SDS011;56119;50.118;8.642;2023-01-10T07:31:08;11.60;;;3.75;;
69047;SDS011;56119;50.118;8.642;2023-01-10T07:33:34;13.55;;;3.28;;
69047;SDS011;56119;50.118;8.642;2023-01-10T07:36:01;10.23;;;3.08;;
69047;SDS011;56119;50.118;8.642;2023-01-10T07:38:28;7.82;;;2.63;;
69047;SDS011;56119;50.118;8.642;2023-01-10T07:40:54;8.40;;;2.90;;
69047;SDS011;56119;50.118;8.642;2023-01-10T07:43:20;13.77;;;3.88;;
69047;SDS011;56119;50.118;8.642;2023-01-10T07:45:46;12.95;;;3.08;;
69047;SDS011;56119;50.118;8.642;2023-01-10T07:48:12;9.25;;;3.25;;
69047;SDS011;56119;50.118;8.642;2023-01-10T07:50:38;13.90;;;3.50;;
69047;SDS011;56119;50.118;8.642;2023-01-10T07:53:05;11.95;;;3.20;;
69047;SDS011;56119;50.118;8.642;2023-01-10T07:55:31;15.95;;;3.72;;
69047;SDS011;56119;50.118;8.642;2023-01-10T07:57:59;12.82;;;3.65;;
69047;SDS011;56119;50.118;8.642;2023-01-10T08:00:25;12.18;;;2.88;;
69047;SDS011;56119;50.118;8.642;2023-01-10T08:02:52;9.38;;;3.17;;
69047;SDS011;56119;50.118;8.642;2023-01-10T08:05:18;7.88;;;2.63;;
69047;SDS011;56119;50.118;8.642;2023-01-10T08:07:44;10.48;;;2.90;;
69047;SDS011;56119;50.118;8.642;2023-01-10T08:10:10;10.20;;;2.50;;
69047;SDS011;56119;50.118;8.642;2023-01-10T08:12:36;9.20;;;2.67;;
69047;SDS011;56119;50.118;8.642;2023-01-10T08:15:02;10.67;;;3.10;;
69047;SDS011;56119;50.118;8.642;2023-01-10T08:17:31;14.18;;;3.30;;
69047;SDS011;56119;50.118;8.642;2023-01-10T08:19:57;10.70;;;2.60;;
69047;SDS011;56119;50.118;8.642;2023-01-10T08:22:23;8.25;;;2.85;;
69047;SDS011;56119;50.118;8.642;2023-01-10T08:24:49;15.40;;;3.45;;
69047;SDS011;56119;50.118;8.642;2023-01-10T08:27:15;12.68;;;4.68;;
69047;SDS011;56119;50.118;8.642;2023-01-10T08:29:41;9.80;;;3.22;;
69047;SDS011;56119;50.118;8.642;2023-01-10T08:32:07;10.18;;;2.70;;
69047;SDS011;56119;50.118;8.642;2023-01-10T08:34:33;9.15;;;2.85;;
69047;SDS011;56119;50.118;8.642;2023-01-10T08:36:59;9.38;;;2.25;;
69047;SDS011;56119;50.118;8.642;2023-01-10T08:39:26;12.07;;;2.42;;
69047;SDS011;56119;50.118;8.642;2023-01-10T08:41:54;8.88;;;2.35;;
69047;SDS011;56119;50.118;8.642;2023-01-10T08:44:20;11.95;;;2.92;;
69047;SDS011;56119;50.118;8.642;2023-01-10T08:46:46;13.07;;;2.92;;
69047;SDS011;56119;50.118;8.642;2023-01-10T08:49:12;10.10;;;2.42;;
69047;SDS011;56119;50.118;8.642;2023-01-10T08:51:39;9.15;;;2.50;;
69047;SDS011;56119;50.118;8.642;2023-01-10T08:54:05;8.35;;;2.80;;
69047;SDS011;56119;50.118;8.642;2023-01-10T08:56:31;10.63;;;2.90;;
69047;SDS011;56119;50.118;8.642;2023-01-10T08:58:57;11.77;;;2.88;;
69047;SDS011;56119;50.118;8.642;2023-01-10T09:01:23;12.60;;;3.28;;
69047;SDS011;56119;50.118;8.642;2023-01-10T09:03:49;11.73;;;2.90;;
69047;SDS011;56119;50.118;8.642;2023-01-10T09:06:15;15.90;;;2.65;;
69047;SDS011;56119;50.118;8.642;2023-01-10T09:08:41;12.02;;;2.45;;
69047;SDS011;56119;50.118;8.642;2023-01-10T09:11:07;8.68;;;2.13;;
69047;SDS011;56119;50.118;8.642;2023-01-10T09:13:33;18.75;;;3.15;;
69047;SDS011;56119;50.118;8.642;2023-01-10T09:15:59;9.68;;;3.47;;
69047;SDS011;56119;50.118;8.642;2023-01-10T09:18:25;11.60;;;2.47;;
69047;SDS011;56119;50.118;8.642;2023-01-10T09:20:52;13.68;;;3.13;;
69047;SDS011;56119;50.118;8.642;2023-01-10T09:23:19;10.05;;;2.97;;
69047;SDS011;56119;50.118;8.642;2023-01-10T09:25:45;12.88;;;2.88;;
69047;SDS011;56119;50.118;8.642;2023-01-10T09:28:11;10.18;;;2.42;;
69047;SDS011;56119;50.118;8.642;2023-01-10T09:30:38;14.52;;;2.85;;
69047;SDS011;56119;50.118;8.642;2023-01-10T09:33:04;15.77;;;3.60;;
69047;SDS011;56119;50.118;8.642;2023-01-10T09:35:30;8.48;;;2.80;;
69047;SDS011;56119;50.118;8.642;2023-01-10T09:37:57;13.77;;;2.28;;
69047;SDS011;56119;50.118;8.642;2023-01-10T09:43:03;14.15;;;2.30;;
69047;SDS011;56119;50.118;8.642;2023-01-10T09:48:15;10.68;;;2.35;;
69047;SDS011;56119;50.118;8.642;2023-01-10T09:53:29;13.77;;;2.40;;
69047;SDS011;56119;50.118;8.642;2023-01-10T09:55:57;9.43;;;2.10;;
69047;SDS011;56119;50.118;8.642;2023-01-10T09:58:25;9.85;;;1.95;;
69047;SDS011;56119;50.118;8.642;2023-01-10T10:00:59;14.32;;;3.40;;
69047;SDS011;56119;50.118;8.642;2023-01-10T10:05:55;8.98;;;2.10;;
69047;SDS011;56119;50.118;8.642;2023-01-10T10:08:21;9.50;;;2.05;;
69047;SDS011;56119;50.118;8.642;2023-01-10T10:10:56;10.13;;;2.10;;
69047;SDS011;56119;50.118;8.642;2023-01-10T10:16:03;12.55;;;2.30;;
69047;SDS011;56119;50.118;8.642;2023-01-10T10:23:51;11.20;;;2.35;;
69047;SDS011;56119;50.118;8.642;2023-01-10T10:26:35;12.30;;;1.98;;
69047;SDS011;56119;50.118;8.642;2023-01-10T10:34:34;10.95;;;2.45;;
69047;SDS011;56119;50.118;8.642;2023-01-10T10:37:02;10.40;;;2.00;;
69047;SDS011;56119;50.118;8.642;2023-01-10T10:42:16;12.00;;;3.25;;
69047;SDS011;56119;50.118;8.642;2023-01-10T10:44:49;7.53;;;2.08;;
69047;SDS011;56119;50.118;8.642;2023-01-10T10:47:19;10.75;;;2.30;;
69047;SDS011;56119;50.118;8.642;2023-01-10T10:50:04;18.70;;;2.38;;
69047;SDS011;56119;50.118;8.642;2023-01-10T10:52:33;15.27;;;2.42;;
69047;SDS011;56119;50.118;8.642;2023-01-10T10:55:00;14.55;;;2.60;;
69047;SDS011;56119;50.118;8.642;2023-01-10T10:57:27;14.73;;;2.95;;
69047;SDS011;56119;50.118;8.642;2023-01-10T10:59:54;13.43;;;3.33;;
69047;SDS011;56119;50.118;8.642;2023-01-10T11:04:47;14.05;;;2.63;;
69047;SDS011;56119;50.118;8.642;2023-01-10T11:07:15;11.52;;;2.75;;
69047;SDS011;56119;50.118;8.642;2023-01-10T11:09:42;12.07;;;2.45;;
69047;SDS011;56119;50.118;8.642;2023-01-10T11:12:18;14.05;;;2.70;;
69047;SDS011;56119;50.118;8.642;2023-01-10T11:14:49;9.07;;;2.70;;
69047;SDS011;56119;50.118;8.642;2023-01-10T11:17:17;12.63;;;2.58;;
69047;SDS011;56119;50.118;8.642;2023-01-10T11:19:53;7.93;;;1.83;;
69047;SDS011;56119;50.118;8.642;2023-01-10T11:22:19;14.10;;;2.70;;
69047;SDS011;56119;50.118;8.642;2023-01-10T11:24:52;8.70;;;2.17;;
69047;SDS011;56119;50.118;8.642;2023-01-10T11:27:22;13.60;;;3.30;;
69047;SDS011;56119;50.118;8.642;2023-01-10T11:29:49;14.40;;;3.35;;
69047;SDS011;56119;50.118;8.642;2023-01-10T11:32:16;11.02;;;2.58;;
69047;SDS011;56119;50.118;8.642;2023-01-10T11:34:48;12.35;;;3.05;;
69047;SDS011;56119;50.118;8.642;2023-01-10T11:37:27;11.15;;;2.90;;
69047;SDS011;56119;50.118;8.642;2023-01-10T11:42:34;9.85;;;2.90;;
69047;SDS011;56119;50.118;8.642;2023-01-10T11:45:14;14.07;;;2.60;;
69047;SDS011;56119;50.118;8.642;2023-01-10T11:47:46;12.00;;;2.22;;
69047;SDS011;56119;50.118;8.642;2023-01-10T11:50:18;12.48;;;2.83;;
69047;SDS011;56119;50.118;8.642;2023-01-10T11:52:44;9.60;;;2.40;;
69047;SDS011;56119;50.118;8.642;2023-01-10T11:55:16;13.50;;;2.83;;
69047;SDS011;56119;50.118;8.642;2023-01-10T11:57:43;10.80;;;2.30;;
69047;SDS011;56119;50.118;8.642;2023-01-10T12:00:09;17.13;;;2.83;;
69047;SDS011;56119;50.118;8.642;2023-01-10T12:02:39;17.90;;;3.58;;
69047;SDS011;56119;50.118;8.642;2023-01-10T12:05:06;13.38;;;2.92;;
69047;SDS011;56119;50.118;8.642;2023-01-10T12:07:52;12.27;;;2.70;;
69047;SDS011;56119;50.118;8.642;2023-01-10T12:10:19;9.75;;;2.35;;
69047;SDS011;56119;50.118;8.642;2023-01-10T12:12:56;12.80;;;2.55;;
69047;SDS011;56119;50.118;8.642;2023-01-10T12:15:26;25.30;;;4.28;;
69047;SDS011;56119;50.118;8.642;2023-01-10T12:17:54;13.43;;;2.60;;
69047;SDS011;56119;50.118;8.642;2023-01-10T12:20:21;11.70;;;3.25;;
69047;SDS011;56119;50.118;8.642;2023-01-10T12:22:53;14.93;;;2.88;;
69047;SDS011;56119;50.118;8.642;2023-01-10T12:27:49;9.45;;;2.40;;
69047;SDS011;56119;50.118;8.642;2023-01-10T12:32:51;10.90;;;2.60;;
69047;SDS011;56119;50.118;8.642;2023-01-10T12:35:18;10.85;;;2.53;;
69047;SDS011;56119;50.118;8.642;2023-01-10T12:37:47;9.15;;;2.30;;
69047;SDS011;56119;50.118;8.642;2023-01-10T12:40:19;12.75;;;2.17;;
69047;SDS011;56119;50.118;8.642;2023-01-10T12:42:50;16.90;;;2.85;;
69047;SDS011;56119;50.118;8.642;2023-01-10T12:45:55;13.93;;;3.30;;
69047;SDS011;56119;50.118;8.642;2023-01-10T12:48:26;17.08;;;2.15;;
69047;SDS011;56119;50.118;8.642;2023-01-10T12:50:56;13.82;;;2.40;;
69047;SDS011;56119;50.118;8.642;2023-01-10T12:53:29;14.38;;;3.13;;
69047;SDS011;56119;50.118;8.642;2023-01-10T12:55:56;16.40;;;2.88;;
69047;SDS011;56119;50.118;8.642;2023-01-10T12:58:26;13.85;;;3.13;;
69047;SDS011;56119;50.118;8.642;2023-01-10T13:00:54;10.00;;;2.47;;
69047;SDS011;56119;50.118;8.642;2023-01-10T13:03:26;12.35;;;2.90;;
69047;SDS011;56119;50.118;8.642;2023-01-10T13:05:53;11.75;;;2.90;;
69047;SDS011;56119;50.118;8.642;2023-01-10T13:08:22;14.93;;;3.33;;
69047;SDS011;56119;50.118;8.642;2023-01-10T13:10:49;10.93;;;2.85;;
69047;SDS011;56119;50.118;8.642;2023-01-10T13:13:33;12.30;;;3.13;;
69047;SDS011;56119;50.118;8.642;2023-01-10T13:19:01;15.95;;;3.13;;
69047;SDS011;56119;50.118;8.642;2023-01-10T13:21:28;16.58;;;4.30;;
69047;SDS011;56119;50.118;8.642;2023-01-10T13:23:58;14.35;;;3.55;;
69047;SDS011;56119;50.118;8.642;2023-01-10T13:26:25;15.82;;;3.47;;
69047;SDS011;56119;50.118;8.642;2023-01-10T13:28:55;14.63;;;4.15;;
69047;SDS011;56119;50.118;8.642;2023-01-10T13:31:31;14.60;;;3.95;;
69047;SDS011;56119;50.118;8.642;2023-01-10T13:33:58;15.65;;;3.55;;
69047;SDS011;56119;50.118;8.642;2023-01-10T13:36:26;11.20;;;3.45;;
69047;SDS011;56119;50.118;8.642;2023-01-10T13:38:55;13.63;;;3.42;;
69047;SDS011;56119;50.118;8.642;2023-01-10T13:41:22;14.35;;;3.33;;
69047;SDS011;56119;50.118;8.642;2023-01-10T13:46:37;17.27;;;3.75;;
69047;SDS011;56119;50.118;8.642;2023-01-10T13:51:36;17.75;;;3.15;;
69047;SDS011;56119;50.118;8.642;2023-01-10T13:54:03;16.80;;;3.80;;
69047;SDS011;56119;50.118;8.642;2023-01-10T13:56:39;15.90;;;3.67;;
69047;SDS011;56119;50.118;8.642;2023-01-10T13:59:13;10.90;;;2.92;;
69047;SDS011;56119;50.118;8.642;2023-01-10T14:01:59;8.10;;;3.00;;
69047;SDS011;56119;50.118;8.642;2023-01-10T14:04:46;14.85;;;3.78;;
69047;SDS011;56119;50.118;8.642;2023-01-10T14:07:24;19.13;;;4.15;;
69047;SDS011;56119;50.118;8.642;2023-01-10T14:09:50;12.45;;;2.92;;
69047;SDS011;56119;50.118;8.642;2023-01-10T14:14:52;16.73;;;3.00;;
69047;SDS011;56119;50.118;8.642;2023-01-10T14:17:26;17.05;;;3.13;;
69047;SDS011;56119;50.118;8.642;2023-01-10T14:20:36;13.30;;;4.18;;
69047;SDS011;56119;50.118;8.642;2023-01-10T14:22:55;11.35;;;2.42;;
69047;SDS011;56119;50.118;8.642;2023-01-10T14:25:22;16.95;;;3.05;;
69047;SDS011;56119;50.118;8.642;2023-01-10T14:27:50;21.73;;;3.78;;
69047;SDS011;56119;50.118;8.642;2023-01-10T14:32:45;13.30;;;2.75;;
69047;SDS011;56119;50.118;8.642;2023-01-10T14:35:16;16.42;;;3.35;;
69047;SDS011;56119;50.118;8.642;2023-01-10T14:37:44;14.35;;;2.85;;
69047;SDS011;56119;50.118;8.642;2023-01-10T14:40:23;13.32;;;2.75;;
69047;SDS011;56119;50.118;8.642;2023-01-10T14:42:50;12.82;;;2.70;;
69047;SDS011;56119;50.118;8.642;2023-01-10T14:45:52;15.10;;;2.72;;
69047;SDS011;56119;50.118;8.642;2023-01-10T14:48:29;16.55;;;2.80;;
69047;SDS011;56119;50.118;8.642;2023-01-10T14:53:40;16.35;;;3.13;;
69047;SDS011;56119;50.118;8.642;2023-01-10T14:56:20;14.98;;;2.75;;
69047;SDS011;56119;50.118;8.642;2023-01-10T14:58:46;14.82;;;2.40;;
69047;SDS011;56119;50.118;8.642;2023-01-10T15:01:13;12.98;;;2.88;;
69047;SDS011;56119;50.118;8.642;2023-01-10T15:03:45;15.55;;;3.03;;
69047;SDS011;56119;50.118;8.642;2023-01-10T15:06:11;18.42;;;3.00;;
69047;SDS011;56119;50.118;8.642;2023-01-10T15:08:37;15.02;;;3.15;;
69047;SDS011;56119;50.118;8.642;2023-01-10T15:11:04;11.82;;;2.10;;
69047;SDS011;56119;50.118;8.642;2023-01-10T15:13:34;14.90;;;2.80;;
69047;SDS011;56119;50.118;8.642;2023-01-10T15:16:01;16.40;;;2.63;;
69047;SDS011;56119;50.118;8.642;2023-01-10T15:18:39;16.83;;;3.00;;
69047;SDS011;56119;50.118;8.642;2023-01-10T15:21:09;14.15;;;2.88;;
69047;SDS011;56119;50.118;8.642;2023-01-10T15:23:36;14.98;;;2.90;;
69047;SDS011;56119;50.118;8.642;2023-01-10T15:26:04;13.32;;;3.63;;
69047;SDS011;56119;50.118;8.642;2023-01-10T15:28:33;15.60;;;3.30;;
69047;SDS011;56119;50.118;8.642;2023-01-10T15:30:59;16.83;;;3.65;;
69047;SDS011;56119;50.118;8.642;2023-01-10T15:33:27;14.68;;;3.55;;
69047;SDS011;56119;50.118;8.642;2023-01-10T15:35:54;18.30;;;4.82;;
69047;SDS011;56119;50.118;8.642;2023-01-10T15:38:22;15.00;;;2.90;;
69047;SDS011;56119;50.118;8.642;2023-01-10T15:40:57;13.13;;;3.20;;
69047;SDS011;56119;50.118;8.642;2023-01-10T15:43:26;18.75;;;4.50;;
69047;SDS011;56119;50.118;8.642;2023-01-10T15:45:53;15.95;;;3.60;;
69047;SDS011;56119;50.118;8.642;2023-01-10T15:50:59;13.23;;;2.65;;
69047;SDS011;56119;50.118;8.642;2023-01-10T15:56:13;12.40;;;3.53;;
69047;SDS011;56119;50.118;8.642;2023-01-10T15:58:46;13.32;;;3.30;;
69047;SDS011;56119;50.118;8.642;2023-01-10T16:01:13;15.27;;;3.38;;
69047;SDS011;56119;50.118;8.642;2023-01-10T16:03:44;19.52;;;4.13;;
69047;SDS011;56119;50.118;8.642;2023-01-10T16:06:18;19.70;;;3.60;;